Time;durP1;ratioP1;P1;durP2;ratioP2;P2;SDS_P1;SDS_P2;PMS_P1;PMS_P2;Temp;Humidity;BMP_temperature;BMP_pressure;BME280_temperature;BME280_humidity;BME280_pressure;Samples;Min_cycle;Max_cycle;Signal;HPM_P1;HPM_P2
2023/03/10 00:01:27;;;;;;;0.90;0.90;;;-12.30;99.90;;;;;;5076756;28;20231;-78
2023/03/10 00:03:54;;;;;;;1.00;1.00;;;-12.30;99.90;;;;;;5081841;28;20189;-77
2023/03/10 00:06:23;;;;;;;0.90;0.90;;;-12.20;99.90;;;;;;5073184;28;20196;-78
2023/03/10 00:08:52;;;;;;;0.90;0.90;;;-12.10;99.90;;;;;;5073405;28;20244;-77
2023/03/10 00:11:19;;;;;;;1.00;1.00;;;-12.00;99.90;;;;;;5074636;28;20220;-77
2023/03/10 00:13:48;;;;;;;1.00;1.00;;;-11.90;99.90;;;;;;5074255;28;20200;-78
2023/03/10 00:16:23;;;;;;;1.07;1.07;;;-11.90;99.90;;;;;;5074659;28;20681;-78
2023/03/10 00:18:53;;;;;;;1.00;1.00;;;-11.90;99.90;;;;;;5073008;28;20220;-77
2023/03/10 00:21:21;;;;;;;1.00;1.00;;;-11.90;99.90;;;;;;5074397;28;20272;-78
2023/03/10 00:23:47;;;;;;;3.13;2.30;;;-11.90;99.90;;;;;;5068452;28;20197;-77
2023/03/10 00:26:15;;;;;;;0.90;0.90;;;-11.90;99.90;;;;;;5074197;28;20246;-78
2023/03/10 00:28:45;;;;;;;1.00;1.00;;;-12.00;99.90;;;;;;5056059;28;20580;-78
2023/03/10 00:31:17;;;;;;;0.90;0.90;;;-12.00;99.90;;;;;;5056142;28;20195;-78
2023/03/10 00:33:43;;;;;;;1.17;1.17;;;-11.90;99.90;;;;;;5055978;28;20199;-78
2023/03/10 00:36:16;;;;;;;1.00;1.00;;;-11.80;99.90;;;;;;5055955;28;20533;-78
2023/03/10 00:38:43;;;;;;;0.90;0.90;;;-11.90;99.90;;;;;;5055983;28;20197;-78
2023/03/10 00:41:20;;;;;;;1.00;1.00;;;-11.90;99.90;;;;;;5074026;28;20192;-78
2023/03/10 00:43:49;;;;;;;0.90;0.90;;;-12.00;99.90;;;;;;5073920;28;20224;-78
2023/03/10 00:46:15;;;;;;;0.80;0.80;;;-12.00;99.90;;;;;;5073733;28;20735;-78
2023/03/10 00:48:44;;;;;;;0.80;0.80;;;-12.00;99.90;;;;;;5055396;28;20304;-78
2023/03/10 00:51:11;;;;;;;0.90;0.90;;;-12.10;99.90;;;;;;5073674;28;20185;-78
2023/03/10 00:53:39;;;;;;;0.90;0.90;;;-12.20;99.90;;;;;;5074554;28;20682;-78
2023/03/10 00:56:14;;;;;;;0.93;0.93;;;-12.30;99.90;;;;;;5075930;28;20192;-78
2023/03/10 00:58:41;;;;;;;0.90;0.90;;;-12.30;99.90;;;;;;5073955;28;20204;-78
2023/03/10 01:01:19;;;;;;;2.00;1.90;;;-12.40;99.90;;;;;;5073469;28;20189;-78
2023/03/10 01:03:45;;;;;;;1.00;1.00;;;-12.50;99.90;;;;;;5073409;28;20285;-78
2023/03/10 01:06:12;;;;;;;0.90;0.90;;;-12.50;99.90;;;;;;5072086;28;20200;-78
2023/03/10 01:08:38;;;;;;;0.90;0.90;;;-12.60;99.90;;;;;;5071636;28;20232;-78
2023/03/10 01:11:04;;;;;;;1.00;1.00;;;-12.60;99.90;;;;;;5072267;28;20284;-77
2023/03/10 01:13:30;;;;;;;0.90;0.90;;;-12.70;99.90;;;;;;5071653;28;20220;-78
2023/03/10 01:15:56;;;;;;;0.90;0.90;;;-12.80;99.90;;;;;;5073092;28;20228;-77
2023/03/10 01:18:22;;;;;;;0.90;0.90;;;-12.90;99.90;;;;;;5071619;28;20197;-77
2023/03/10 01:20:48;;;;;;;1.00;1.00;;;-12.90;99.90;;;;;;5072469;28;20216;-76
2023/03/10 01:23:20;;;;;;;0.90;0.90;;;-13.00;99.90;;;;;;5072786;28;20222;-77
2023/03/10 01:25:46;;;;;;;0.90;0.90;;;-13.10;99.90;;;;;;5054096;28;20227;-76
2023/03/10 01:28:12;;;;;;;0.97;0.97;;;-13.10;99.90;;;;;;5072621;28;20201;-77
2023/03/10 01:30:45;;;;;;;0.90;0.90;;;-13.20;99.90;;;;;;5054666;28;20203;-77
2023/03/10 01:33:15;;;;;;;1.00;1.00;;;-13.20;99.90;;;;;;5072645;28;20234;-76
2023/03/10 01:35:43;;;;;;;0.90;0.90;;;-13.30;99.90;;;;;;5054628;28;20686;-78
2023/03/10 01:38:09;;;;;;;0.90;0.90;;;-13.30;99.90;;;;;;5073518;28;20260;-78
2023/03/10 01:40:37;;;;;;;0.90;0.90;;;-13.30;99.90;;;;;;5071586;28;20457;-78
2023/03/10 01:43:28;;;;;;;1.00;1.00;;;-13.30;99.90;;;;;;5072770;28;20242;-78
2023/03/10 01:45:53;;;;;;;1.30;1.30;;;-13.40;99.90;;;;;;5054694;28;20631;-78
2023/03/10 01:48:21;;;;;;;0.90;0.90;;;-13.40;99.90;;;;;;5072550;28;20240;-77
2023/03/10 01:50:50;;;;;;;0.90;0.90;;;-13.50;99.90;;;;;;5081029;28;20699;-76
2023/03/10 01:53:18;;;;;;;1.07;1.07;;;-13.50;99.90;;;;;;5091545;28;20196;-78
2023/03/10 01:55:53;;;;;;;0.90;0.90;;;-13.50;99.90;;;;;;5066285;28;20189;-77
2023/03/10 01:58:23;;;;;;;1.00;1.00;;;-13.60;99.90;;;;;;5072596;28;20251;-78
2023/03/10 02:00:53;;;;;;;0.90;0.90;;;-13.60;99.90;;;;;;5071912;28;20546;-79
2023/03/10 02:06:10;;;;;;;0.90;0.90;;;-13.60;99.90;;;;;;5027698;28;20229;-76
2023/03/10 02:08:44;;;;;;;0.90;0.90;;;-13.60;99.90;;;;;;5032088;28;20198;-77
2023/03/10 02:11:10;;;;;;;1.00;1.00;;;-13.60;99.90;;;;;;5032210;28;20190;-76
2023/03/10 02:13:36;;;;;;;0.90;0.90;;;-13.60;99.90;;;;;;5032007;28;20366;-75
2023/03/10 02:16:02;;;;;;;0.90;0.90;;;-13.60;99.90;;;;;;5030755;28;20612;-79
2023/03/10 02:18:30;;;;;;;0.90;0.90;;;-13.60;99.90;;;;;;5031904;28;20198;-76
2023/03/10 02:21:23;;;;;;;0.90;0.90;;;-13.60;99.90;;;;;;5032240;28;20195;-76
2023/03/10 02:23:55;;;;;;;0.90;0.90;;;-13.60;99.90;;;;;;5024808;28;20201;-76
2023/03/10 02:26:33;;;;;;;1.00;1.00;;;-13.60;99.90;;;;;;5012126;28;20206;-76
2023/03/10 02:29:03;;;;;;;0.90;0.90;;;-13.60;99.90;;;;;;5011989;28;20206;-78
2023/03/10 02:31:30;;;;;;;1.00;1.00;;;-13.70;99.90;;;;;;5012326;28;20551;-76
2023/03/10 02:33:56;;;;;;;0.97;0.97;;;-13.80;99.90;;;;;;5012530;28;20673;-78
2023/03/10 02:36:23;;;;;;;0.90;0.90;;;-13.90;99.90;;;;;;5012359;28;20221;-77
2023/03/10 02:38:49;;;;;;;0.90;0.90;;;-13.90;99.90;;;;;;5015655;28;20195;-76
2023/03/10 02:41:20;;;;;;;0.90;0.90;;;-14.00;99.90;;;;;;5015856;28;20198;-76
2023/03/10 02:43:47;;;;;;;0.90;0.90;;;-14.10;99.90;;;;;;5030976;28;20285;-76
2023/03/10 02:46:13;;;;;;;0.90;0.90;;;-14.10;99.90;;;;;;5017613;28;20202;-77
2023/03/10 02:48:39;;;;;;;0.90;0.90;;;-14.10;99.90;;;;;;5033958;28;20218;-77
2023/03/10 02:51:14;;;;;;;1.00;1.00;;;-14.10;99.90;;;;;;5033896;28;20533;-77
2023/03/10 02:53:40;;;;;;;0.90;0.90;;;-14.00;99.90;;;;;;5035164;28;20221;-76
2023/03/10 02:56:05;;;;;;;0.90;0.90;;;-13.90;99.90;;;;;;5034056;28;20676;-77
2023/03/10 02:58:32;;;;;;;0.90;0.90;;;-13.80;99.90;;;;;;5034979;28;20214;-76
2023/03/10 03:00:57;;;;;;;0.80;0.80;;;-13.60;99.90;;;;;;5033388;28;20194;-77
2023/03/10 03:03:23;;;;;;;0.90;0.90;;;-13.60;99.90;;;;;;5033676;28;20198;-76
2023/03/10 03:05:50;;;;;;;1.00;1.00;;;-13.60;99.90;;;;;;5052619;28;20237;-77
2023/03/10 03:08:17;;;;;;;0.90;0.90;;;-13.50;99.90;;;;;;5036984;28;20252;-78
2023/03/10 03:10:45;;;;;;;1.00;1.00;;;-13.50;99.90;;;;;;5036991;28;20284;-77
2023/03/10 03:13:11;;;;;;;0.90;0.90;;;-13.60;99.90;;;;;;5054787;28;20194;-77
2023/03/10 03:15:38;;;;;;;0.90;0.90;;;-13.60;99.90;;;;;;5054801;28;20200;-77
2023/03/10 03:18:04;;;;;;;1.00;1.00;;;-13.80;99.90;;;;;;5055071;28;20272;-76
2023/03/10 03:20:31;;;;;;;0.80;0.80;;;-13.80;99.90;;;;;;5036706;28;20240;-75
2023/03/10 03:22:58;;;;;;;0.90;0.90;;;-13.90;99.90;;;;;;5054919;28;20198;-76
2023/03/10 03:25:25;;;;;;;0.90;0.90;;;-14.00;99.90;;;;;;5034782;28;20194;-76
2023/03/10 03:27:51;;;;;;;0.90;0.90;;;-14.00;99.90;;;;;;5034723;28;20206;-77
2023/03/10 03:30:23;;;;;;;0.90;0.90;;;-14.00;99.90;;;;;;5034800;28;20194;-76
2023/03/10 03:32:49;;;;;;;1.00;1.00;;;-14.10;99.90;;;;;;5034725;28;20186;-76
2023/03/10 03:35:39;;;;;;;0.93;0.93;;;-14.10;99.90;;;;;;5033497;28;20198;-77
2023/03/10 03:38:05;;;;;;;0.90;0.90;;;-14.10;99.90;;;;;;5017005;28;20669;-76
2023/03/10 03:40:33;;;;;;;0.90;0.90;;;-14.10;99.90;;;;;;5034383;28;20198;-76
2023/03/10 03:43:00;;;;;;;0.80;0.80;;;-14.00;99.90;;;;;;5040532;28;20216;-77
2023/03/10 03:45:27;;;;;;;0.90;0.90;;;-14.00;99.90;;;;;;5054231;28;20328;-75
2023/03/10 03:47:53;;;;;;;0.90;0.90;;;-14.00;99.90;;;;;;5054174;28;20206;-76
2023/03/10 03:50:21;;;;;;;0.90;0.90;;;-14.10;99.90;;;;;;5053408;28;20212;-76
2023/03/10 03:52:47;;;;;;;1.00;1.00;;;-14.10;99.90;;;;;;5036421;28;20201;-76
2023/03/10 03:55:15;;;;;;;0.90;0.90;;;-14.10;99.90;;;;;;5054336;28;20319;-77
2023/03/10 03:57:44;;;;;;;0.83;0.83;;;-14.10;99.90;;;;;;5054010;28;20193;-76
2023/03/10 04:00:21;;;;;;;0.90;0.90;;;-14.10;99.90;;;;;;5054337;28;20189;-75
2023/03/10 04:02:47;;;;;;;0.80;0.80;;;-14.00;99.90;;;;;;5053275;28;20194;-76
2023/03/10 04:05:13;;;;;;;0.90;0.90;;;-13.90;99.90;;;;;;5036118;28;20230;-78
2023/03/10 04:07:40;;;;;;;0.90;0.90;;;-13.80;99.90;;;;;;5053922;28;20206;-77
2023/03/10 04:10:08;;;;;;;1.00;1.00;;;-13.90;99.90;;;;;;5054048;28;20190;-77
2023/03/10 04:12:34;;;;;;;1.00;1.00;;;-13.80;99.90;;;;;;5052747;28;20710;-77
2023/03/10 04:15:00;;;;;;;1.00;1.00;;;-13.80;99.90;;;;;;5054288;28;20269;-76
2023/03/10 04:17:25;;;;;;;0.90;0.90;;;-13.80;99.90;;;;;;5054307;28;20190;-76
2023/03/10 04:19:51;;;;;;;1.00;1.00;;;-13.80;99.90;;;;;;5054069;28;20197;-76
2023/03/10 04:22:17;;;;;;;0.90;0.90;;;-13.80;99.90;;;;;;5054077;28;20748;-77
2023/03/10 04:24:42;;;;;;;0.90;0.90;;;-13.80;99.90;;;;;;5039153;28;20245;-77
2023/03/10 04:27:10;;;;;;;1.00;1.00;;;-13.80;99.90;;;;;;5034035;28;20197;-76
2023/03/10 04:29:36;;;;;;;8.03;2.70;;;-13.80;99.90;;;;;;5032470;28;20296;-76
2023/03/10 04:32:03;;;;;;;0.90;0.90;;;-13.80;99.90;;;;;;5033885;28;20653;-77
2023/03/10 04:34:29;;;;;;;0.90;0.90;;;-13.90;99.90;;;;;;5015901;28;20289;-77
2023/03/10 04:36:55;;;;;;;0.90;0.90;;;-13.80;99.90;;;;;;5032797;28;20190;-77
2023/03/10 04:39:20;;;;;;;0.90;0.90;;;-13.90;99.90;;;;;;5040336;28;20202;-77
2023/03/10 04:41:46;;;;;;;0.90;0.90;;;-13.80;99.90;;;;;;5053698;28;20198;-76
2023/03/10 04:44:12;;;;;;;0.93;0.93;;;-13.80;99.90;;;;;;5053321;28;20204;-78
2023/03/10 04:46:38;;;;;;;0.80;0.80;;;-13.70;99.90;;;;;;5035432;28;20201;-77
2023/03/10 04:49:03;;;;;;;0.90;0.90;;;-13.60;99.90;;;;;;5053380;28;20240;-78
2023/03/10 04:51:29;;;;;;;0.90;0.90;;;-13.60;99.90;;;;;;5035604;28;20195;-77
2023/03/10 04:54:01;;;;;;;0.93;0.93;;;-13.60;99.90;;;;;;5035624;28;20194;-76
2023/03/10 04:56:28;;;;;;;0.90;0.90;;;-13.60;99.90;;;;;;5053172;28;20189;-76
2023/03/10 04:58:53;;;;;;;0.90;0.90;;;-13.60;99.90;;;;;;5053271;28;20602;-76
2023/03/10 05:01:19;;;;;;;0.90;0.90;;;-13.60;99.90;;;;;;5035037;28;20198;-77
2023/03/10 05:03:45;;;;;;;1.00;1.00;;;-13.60;99.90;;;;;;5052530;28;20563;-77
2023/03/10 05:06:17;;;;;;;0.90;0.90;;;-13.70;99.90;;;;;;5052602;28;20206;-78
2023/03/10 05:08:43;;;;;;;0.80;0.80;;;-13.60;99.90;;;;;;5051442;28;20209;-77
2023/03/10 05:11:09;;;;;;;1.00;1.00;;;-13.60;99.90;;;;;;5052769;28;20683;-77
2023/03/10 05:13:35;;;;;;;0.90;0.90;;;-13.60;99.90;;;;;;5052605;28;20196;-77
2023/03/10 05:16:00;;;;;;;0.90;0.90;;;-13.70;99.90;;;;;;5035045;28;20197;-76
2023/03/10 05:18:26;;;;;;;0.90;0.90;;;-13.60;99.90;;;;;;5052861;28;20198;-77
2023/03/10 05:20:57;;;;;;;0.90;0.90;;;-13.70;99.90;;;;;;5034931;28;20669;-76
2023/03/10 05:23:23;;;;;;;0.90;0.90;;;-13.70;99.90;;;;;;5049111;28;20529;-76
2023/03/10 05:25:49;;;;;;;0.90;0.90;;;-13.70;99.90;;;;;;5032747;28;20201;-77
2023/03/10 05:28:15;;;;;;;1.00;1.00;;;-13.70;99.90;;;;;;5033086;28;20291;-77
2023/03/10 05:30:43;;;;;;;0.80;0.80;;;-13.70;99.90;;;;;;5032977;28;20584;-77
2023/03/10 05:33:09;;;;;;;0.90;0.90;;;-13.60;99.90;;;;;;5032844;28;20190;-77
2023/03/10 05:35:37;;;;;;;0.93;0.93;;;-13.60;99.90;;;;;;5039369;28;20208;-73
2023/03/10 05:38:03;;;;;;;0.90;0.90;;;-13.60;99.90;;;;;;5052868;28;20189;-78
2023/03/10 05:40:29;;;;;;;0.90;0.90;;;-13.70;99.90;;;;;;5034362;28;20280;-77
2023/03/10 05:42:55;;;;;;;0.80;0.80;;;-13.70;99.90;;;;;;5052650;28;20224;-77
2023/03/10 05:45:20;;;;;;;0.90;0.90;;;-13.70;99.90;;;;;;5034578;28;20237;-77
2023/03/10 05:47:46;;;;;;;1.00;1.00;;;-13.70;99.90;;;;;;5034333;28;20255;-77
2023/03/10 05:50:15;;;;;;;0.90;0.90;;;-13.70;99.90;;;;;;5052320;28;20679;-77
2023/03/10 05:52:42;;;;;;;1.00;1.00;;;-13.70;99.90;;;;;;5033820;28;20255;-77
2023/03/10 05:55:13;;;;;;;1.03;1.03;;;-13.70;99.90;;;;;;5034190;28;20205;-76
2023/03/10 05:57:39;;;;;;;0.90;0.90;;;-13.60;99.90;;;;;;5052109;28;20193;-77
2023/03/10 06:00:08;;;;;;;0.90;0.90;;;-13.60;99.90;;;;;;5051868;28;20549;-76
2023/03/10 06:02:35;;;;;;;0.90;0.90;;;-13.70;99.90;;;;;;5033912;28;20198;-75
2023/03/10 06:05:02;;;;;;;0.93;0.93;;;-13.70;99.90;;;;;;5050771;28;20704;-76
2023/03/10 06:07:28;;;;;;;0.90;0.90;;;-13.70;99.90;;;;;;5050800;28;20202;-76
2023/03/10 06:09:54;;;;;;;1.00;1.00;;;-13.70;99.90;;;;;;5034655;28;20205;-76
2023/03/10 06:12:20;;;;;;;0.90;0.90;;;-13.60;99.90;;;;;;5053521;28;20667;-74
2023/03/10 06:14:46;;;;;;;0.90;0.90;;;-13.60;99.90;;;;;;5056389;28;20535;-76
2023/03/10 06:17:12;;;;;;;0.90;0.90;;;-13.50;99.90;;;;;;5038290;28;20200;-77
2023/03/10 06:19:37;;;;;;;0.83;0.83;;;-13.40;99.90;;;;;;5056029;28;20204;-76
2023/03/10 06:22:03;;;;;;;0.90;0.90;;;-13.20;99.90;;;;;;5038288;28;20342;-76
2023/03/10 06:24:29;;;;;;;1.00;1.00;;;-13.10;99.90;;;;;;5025718;28;20285;-77
2023/03/10 06:26:55;;;;;;;1.00;1.00;;;-13.00;99.90;;;;;;5036215;28;20198;-76
2023/03/10 06:29:20;;;;;;;1.00;1.00;;;-12.90;99.90;;;;;;5035754;28;20210;-75
2023/03/10 06:31:46;;;;;;;0.90;0.90;;;-12.80;99.90;;;;;;5041021;28;20189;-76
2023/03/10 06:34:12;;;;;;;0.90;0.90;;;-12.70;99.90;;;;;;5055922;28;20194;-77
2023/03/10 06:36:39;;;;;;;0.93;0.93;;;-12.50;99.90;;;;;;5055463;28;20209;-77
2023/03/10 06:39:05;;;;;;;1.00;1.00;;;-12.40;99.90;;;;;;5037894;28;20204;-75
2023/03/10 06:41:32;;;;;;;0.90;0.90;;;-12.40;99.90;;;;;;5055480;28;20217;-75
2023/03/10 06:43:57;;;;;;;0.93;0.93;;;-12.20;99.90;;;;;;5055768;28;20208;-76
2023/03/10 06:46:24;;;;;;;0.80;0.80;;;-12.10;99.90;;;;;;5054772;28;20209;-75
2023/03/10 06:48:50;;;;;;;0.90;0.90;;;-12.00;99.90;;;;;;5037658;28;20217;-77
2023/03/10 06:51:19;;;;;;;0.90;0.90;;;-11.90;99.90;;;;;;5055563;28;20213;-76
2023/03/10 06:53:45;;;;;;;1.23;1.20;;;-11.80;99.90;;;;;;5038291;28;20201;-76
2023/03/10 06:56:15;;;;;;;0.83;0.83;;;-11.70;99.90;;;;;;5054707;28;20725;-76
2023/03/10 06:58:44;;;;;;;0.90;0.90;;;-11.60;99.90;;;;;;5055586;28;20205;-77
2023/03/10 07:01:28;;;;;;;0.90;0.90;;;-11.40;99.90;;;;;;5037598;28;20209;-76
2023/03/10 07:03:55;;;;;;;1.00;1.00;;;-11.20;99.90;;;;;;5055435;28;20189;-77
2023/03/10 07:06:21;;;;;;;1.00;1.00;;;-11.10;99.90;;;;;;5055511;28;20213;-77
2023/03/10 07:08:50;;;;;;;0.90;0.90;;;-10.90;99.90;;;;;;5037627;28;20220;-77
2023/03/10 07:11:16;;;;;;;0.90;0.90;;;-10.70;99.90;;;;;;5055951;28;20667;-77
2023/03/10 07:13:42;;;;;;;0.90;0.90;;;-10.60;99.90;;;;;;5055588;28;20228;-78
2023/03/10 07:16:07;;;;;;;0.90;0.90;;;-10.50;99.90;;;;;;5055604;28;20243;-76
2023/03/10 07:18:34;;;;;;;0.97;0.97;;;-10.30;99.90;;;;;;5037218;28;20200;-76
2023/03/10 07:20:59;;;;;;;0.90;0.90;;;-10.30;99.90;;;;;;5055106;28;20194;-76
2023/03/10 07:23:25;;;;;;;0.93;0.93;;;-10.30;99.90;;;;;;5050191;28;20216;-75
2023/03/10 07:25:57;;;;;;;1.00;1.00;;;-10.10;99.90;;;;;;5017164;28;20194;-75
2023/03/10 07:28:24;;;;;;;1.00;1.00;;;-10.00;99.90;;;;;;5044073;28;20215;-76
2023/03/10 07:30:50;;;;;;;0.80;0.80;;;-9.90;99.90;;;;;;5054886;28;20189;-76
2023/03/10 07:33:16;;;;;;;0.90;0.90;;;-9.90;99.90;;;;;;5037161;28;20189;-75
2023/03/10 07:35:45;;;;;;;1.00;1.00;;;-9.80;99.90;;;;;;5054792;28;20247;-75
2023/03/10 07:38:10;;;;;;;0.90;0.90;;;-9.70;99.90;;;;;;5036884;28;20209;-75
2023/03/10 07:40:39;;;;;;;0.93;0.93;;;-9.60;99.90;;;;;;5054707;28;20197;-75
2023/03/10 07:43:04;;;;;;;1.00;1.00;;;-9.50;99.90;;;;;;5054752;28;20201;-75
2023/03/10 07:45:32;;;;;;;0.90;0.90;;;-9.30;99.90;;;;;;5054492;28;20743;-75
2023/03/10 07:47:58;;;;;;;0.93;0.93;;;-9.20;99.90;;;;;;5054538;28;20757;-76
2023/03/10 07:50:24;;;;;;;0.83;0.83;;;-9.00;99.90;;;;;;5054527;28;20720;-75
2023/03/10 07:52:54;;;;;;;1.53;1.43;;;-8.90;99.90;;;;;;5054498;28;20231;-75
2023/03/10 07:55:26;;;;;;;0.90;0.90;;;-8.70;99.90;;;;;;5036359;28;20223;-76
2023/03/10 07:57:56;;;;;;;1.00;1.00;;;-8.50;99.90;;;;;;5054601;28;20185;-75
2023/03/10 08:00:22;;;;;;;0.90;0.90;;;-8.30;99.90;;;;;;5054317;28;20185;-76
2023/03/10 08:02:47;;;;;;;2.60;2.40;;;-8.20;99.90;;;;;;5036325;28;20287;-74
2023/03/10 08:05:13;;;;;;;0.87;0.87;;;-8.00;99.90;;;;;;5054155;28;20806;-75
2023/03/10 08:07:39;;;;;;;0.90;0.90;;;-7.90;99.90;;;;;;5054590;28;20209;-76
2023/03/10 08:10:06;;;;;;;1.00;1.00;;;-7.70;99.90;;;;;;5054561;28;20205;-77
2023/03/10 08:12:32;;;;;;;0.90;0.90;;;-7.50;99.90;;;;;;5054100;28;20193;-76
2023/03/10 08:15:01;;;;;;;1.10;1.10;;;-7.40;99.90;;;;;;5054191;28;20189;-76
2023/03/10 08:17:30;;;;;;;0.90;0.90;;;-7.30;99.90;;;;;;5053993;28;20194;-76
2023/03/10 08:19:57;;;;;;;0.90;0.90;;;-7.10;99.90;;;;;;5036475;28;20197;-76
2023/03/10 08:22:23;;;;;;;0.90;0.90;;;-7.00;99.90;;;;;;5054251;28;20213;-75
2023/03/10 08:24:48;;;;;;;0.90;0.90;;;-6.80;99.90;;;;;;5048986;28;20622;-75
2023/03/10 08:27:14;;;;;;;1.00;1.00;;;-6.60;99.90;;;;;;5054338;28;20193;-76
2023/03/10 08:29:42;;;;;;;1.00;1.00;;;-6.20;99.90;;;;;;5053627;28;20213;-76
2023/03/10 08:32:08;;;;;;;0.90;0.90;;;-5.90;99.90;;;;;;5054334;28;20652;-75
2023/03/10 08:34:34;;;;;;;1.00;1.00;;;-5.50;99.90;;;;;;5053830;28;20198;-75
2023/03/10 08:37:01;;;;;;;0.80;0.80;;;-5.30;99.90;;;;;;5054302;28;20272;-74
2023/03/10 08:39:28;;;;;;;0.83;0.83;;;-5.00;99.90;;;;;;5053869;28;20271;-76
2023/03/10 08:41:54;;;;;;;0.90;0.90;;;-4.80;99.90;;;;;;5053888;28;20197;-76
2023/03/10 08:44:21;;;;;;;0.80;0.80;;;-4.80;99.90;;;;;;5052698;28;20225;-76
2023/03/10 08:46:48;;;;;;;1.00;1.00;;;-4.70;99.90;;;;;;5035740;28;20201;-75
2023/03/10 08:49:16;;;;;;;1.10;1.10;;;-4.60;99.90;;;;;;5053492;28;20209;-77
2023/03/10 08:51:42;;;;;;;2.57;1.57;;;-4.60;99.90;;;;;;5053696;28;20251;-76
2023/03/10 08:54:12;;;;;;;1.50;1.40;;;-4.70;99.90;;;;;;5052610;28;20668;-75
2023/03/10 08:56:37;;;;;;;0.80;0.80;;;-4.70;99.90;;;;;;5035647;28;20201;-75
2023/03/10 08:59:03;;;;;;;0.90;0.90;;;-4.60;99.90;;;;;;5053896;28;20223;-75
2023/03/10 09:01:31;;;;;;;0.90;0.90;;;-4.40;99.90;;;;;;5053534;28;20220;-76
2023/03/10 09:03:59;;;;;;;0.90;0.90;;;-4.00;99.90;;;;;;5053041;28;20704;-75
2023/03/10 09:06:24;;;;;;;0.77;0.77;;;-3.50;99.90;;;;;;5052974;28;20229;-76
2023/03/10 09:08:51;;;;;;;1.00;1.00;;;-3.00;99.90;;;;;;5035599;28;20209;-76
2023/03/10 09:11:25;;;;;;;0.90;0.90;;;-2.60;99.90;;;;;;5053660;28;20185;-77
2023/03/10 09:13:51;;;;;;;0.77;0.77;;;-2.60;99.90;;;;;;5052405;28;20201;-78
2023/03/10 09:16:17;;;;;;;0.90;0.90;;;-2.40;99.90;;;;;;5053580;28;20193;-77
2023/03/10 09:18:44;;;;;;;0.80;0.80;;;-2.20;99.90;;;;;;5053428;28;20197;-76
2023/03/10 09:21:12;;;;;;;0.70;0.70;;;-2.40;99.90;;;;;;5053274;28;20664;-76
2023/03/10 09:23:41;;;;;;;0.85;0.85;;;-1.90;99.90;;;;;;5052949;28;20606;-77
2023/03/10 09:26:07;;;;;;;0.80;0.80;;;-1.60;99.90;;;;;;5043208;28;20295;-75
2023/03/10 09:28:32;;;;;;;0.75;0.75;;;-1.30;99.90;;;;;;5053082;28;20240;-74
2023/03/10 09:30:58;;;;;;;0.60;0.60;;;-1.20;99.90;;;;;;5051527;28;20319;-73
2023/03/10 09:33:24;;;;;;;0.80;0.80;;;-1.00;99.90;;;;;;5052818;28;20193;-75
2023/03/10 09:35:50;;;;;;;0.95;0.95;;;-0.90;99.90;;;;;;5051920;28;20545;-76
2023/03/10 09:38:16;;;;;;;0.80;0.80;;;-0.50;99.90;;;;;;5053115;28;20217;-75
2023/03/10 09:40:47;;;;;;;0.60;0.60;;;-0.50;99.90;;;;;;5052933;28;20244;-76
2023/03/10 09:43:21;;;;;;;0.70;0.70;;;-0.50;99.90;;;;;;5052819;28;20520;-75
2023/03/10 09:45:59;;;;;;;0.73;0.73;;;-0.60;99.90;;;;;;5052988;28;20273;-75
2023/03/10 09:48:31;;;;;;;0.95;0.95;;;-0.70;99.90;;;;;;5034231;28;20239;-76
2023/03/10 09:50:58;;;;;;;0.70;0.70;;;-0.30;99.90;;;;;;5052987;28;20264;-75
2023/03/10 09:53:38;;;;;;;0.70;0.70;;;-0.30;99.90;;;;;;5034420;28;20197;-75
2023/03/10 09:56:17;;;;;;;0.60;0.60;;;-0.20;99.90;;;;;;5051712;28;20219;-75
2023/03/10 09:58:57;;;;;;;0.60;0.60;;;0.20;99.90;;;;;;5052936;28;20272;-75
2023/03/10 10:01:27;;;;;;;0.57;0.57;;;0.90;99.90;;;;;;5052643;28;20193;-74
2023/03/10 10:03:58;;;;;;;0.80;0.80;;;1.00;99.90;;;;;;5052570;28;20591;-76
2023/03/10 10:06:28;;;;;;;0.60;0.60;;;1.20;99.90;;;;;;5052733;28;20250;-75
2023/03/10 10:09:20;;;;;;;0.50;0.50;;;1.10;99.90;;;;;;5052294;28;20725;-74
2023/03/10 10:11:46;;;;;;;0.65;0.65;;;1.20;99.90;;;;;;5026856;28;20201;-76
2023/03/10 10:14:16;;;;;;;0.50;0.50;;;1.30;99.90;;;;;;5052698;28;20269;-76
2023/03/10 10:16:54;;;;;;;0.50;0.50;;;1.30;99.90;;;;;;5047342;28;20243;-76
2023/03/10 10:19:25;;;;;;;0.70;0.70;;;1.60;99.90;;;;;;5014265;28;20288;-78
2023/03/10 10:22:23;;;;;;;1.42;1.33;;;2.00;99.90;;;;;;5039352;28;20247;-76
2023/03/10 10:25:03;;;;;;;0.88;0.88;;;1.60;99.90;;;;;;5052193;28;20198;-75
2023/03/10 10:27:32;;;;;;;0.90;0.90;;;1.90;99.90;;;;;;5052299;28;20216;-75
2023/03/10 10:29:57;;;;;;;1.30;1.20;;;2.00;99.90;;;;;;5052773;28;20201;-73
2023/03/10 10:32:24;;;;;;;2.03;1.92;;;1.80;99.90;;;;;;5034488;28;20280;-75
2023/03/10 10:34:50;;;;;;;0.85;0.85;;;1.70;99.90;;;;;;5052314;28;20549;-75
2023/03/10 10:37:25;;;;;;;0.50;0.50;;;1.60;99.90;;;;;;5052542;28;20194;-75
2023/03/10 10:39:53;;;;;;;0.80;0.80;;;1.40;99.90;;;;;;5052472;28;20295;-75
2023/03/10 10:42:23;;;;;;;0.95;0.90;;;1.50;99.90;;;;;;5052094;28;20259;-75
2023/03/10 10:44:52;;;;;;;0.70;0.70;;;1.60;99.90;;;;;;5014684;28;20224;-75
2023/03/10 10:47:30;;;;;;;0.70;0.70;;;1.80;99.90;;;;;;5014697;28;20673;-75
2023/03/10 10:50:22;;;;;;;0.60;0.60;;;1.80;99.90;;;;;;5031214;28;20214;-75
2023/03/10 10:52:51;;;;;;;0.70;0.70;;;2.20;99.90;;;;;;5032252;28;20594;-75
2023/03/10 10:55:26;;;;;;;0.50;0.50;;;2.10;99.90;;;;;;5032438;28;20194;-75
2023/03/10 10:58:00;;;;;;;0.88;0.88;;;1.90;99.90;;;;;;5031434;28;20194;-75
2023/03/10 11:00:33;;;;;;;0.77;0.77;;;2.20;99.90;;;;;;5035873;28;20186;-74
2023/03/10 11:02:59;;;;;;;1.08;1.05;;;2.30;99.90;;;;;;5035789;28;20614;-75
2023/03/10 11:05:34;;;;;;;0.63;0.63;;;2.50;99.90;;;;;;5035458;28;20301;-73
2023/03/10 11:08:36;;;;;;;0.60;0.60;;;2.60;99.90;;;;;;5017827;28;20225;-74
2023/03/10 11:11:29;;;;;;;0.50;0.50;;;3.10;99.90;;;;;;5017632;28;20251;-75
2023/03/10 11:14:25;;;;;;;0.70;0.70;;;3.50;98.40;;;;;;5048791;28;20644;-75
2023/03/10 11:16:58;;;;;;;0.93;0.93;;;3.50;97.50;;;;;;5037610;28;20615;-74
2023/03/10 11:19:28;;;;;;;0.70;0.70;;;3.40;98.20;;;;;;5051731;28;20230;-73
2023/03/10 11:22:18;;;;;;;0.70;0.70;;;3.10;96.50;;;;;;5054280;28;20614;-72
2023/03/10 11:25:23;;;;;;;0.77;0.77;;;3.00;97.30;;;;;;5019406;28;20679;-73
2023/03/10 11:28:16;;;;;;;0.93;0.93;;;3.20;96.50;;;;;;5055389;28;20204;-74
2023/03/10 11:31:22;;;;;;;0.60;0.60;;;3.10;96.00;;;;;;5055358;28;20186;-74
2023/03/10 11:34:02;;;;;;;0.60;0.60;;;3.10;97.10;;;;;;5055425;28;20280;-74
2023/03/10 11:36:47;;;;;;;0.60;0.60;;;3.80;95.40;;;;;;5055116;28;20189;-74
2023/03/10 11:39:24;;;;;;;0.77;0.77;;;4.20;95.00;;;;;;5037217;28;20247;-74
2023/03/10 11:42:00;;;;;;;0.60;0.60;;;4.10;94.80;;;;;;5055194;28;20193;-74
2023/03/10 11:44:29;;;;;;;0.70;0.70;;;4.10;95.10;;;;;;5053383;28;20193;-74
2023/03/10 11:47:06;;;;;;;0.60;0.60;;;4.10;94.60;;;;;;5055005;28;20200;-74
2023/03/10 11:49:44;;;;;;;0.70;0.70;;;4.40;93.70;;;;;;5054996;28;20201;-74
2023/03/10 11:52:15;;;;;;;0.70;0.70;;;4.50;94.30;;;;;;5055096;28;20552;-75
2023/03/10 11:54:48;;;;;;;0.95;0.95;;;4.70;92.50;;;;;;5053816;28;20229;-75
2023/03/10 11:57:23;;;;;;;0.70;0.70;;;4.50;90.10;;;;;;5054874;28;20196;-74
2023/03/10 11:59:52;;;;;;;0.52;0.52;;;4.20;91.20;;;;;;5036804;28;20668;-75
2023/03/10 12:02:49;;;;;;;0.60;0.60;;;4.30;92.00;;;;;;5054395;28;20190;-75
2023/03/10 12:05:21;;;;;;;0.70;0.70;;;4.80;90.00;;;;;;5053467;28;20233;-74
2023/03/10 12:07:54;;;;;;;0.60;0.60;;;4.60;87.80;;;;;;5054456;28;20190;-73
2023/03/10 12:10:21;;;;;;;26.17;6.75;;;3.90;85.70;;;;;;5048867;28;20733;-75
2023/03/10 12:12:49;;;;;;;0.70;0.70;;;3.50;91.10;;;;;;5016561;28;20194;-75
2023/03/10 12:15:35;;;;;;;1.90;1.75;;;3.40;89.80;;;;;;5048661;28;20254;-73
2023/03/10 12:18:06;;;;;;;0.68;0.68;;;3.40;92.30;;;;;;5036633;28;20190;-74
2023/03/10 12:20:34;;;;;;;0.80;0.80;;;3.60;91.70;;;;;;5054119;28;20199;-75
2023/03/10 12:23:25;;;;;;;0.52;0.52;;;3.70;89.80;;;;;;5053839;28;20538;-74
2023/03/10 12:25:52;;;;;;;0.70;0.70;;;3.60;91.00;;;;;;5052783;28;20288;-75
2023/03/10 12:28:24;;;;;;;0.60;0.60;;;3.70;86.20;;;;;;5054250;28;20212;-74
2023/03/10 12:30:56;;;;;;;0.70;0.70;;;3.60;89.20;;;;;;5036239;28;20193;-74
2023/03/10 12:33:38;;;;;;;0.50;0.50;;;3.60;87.30;;;;;;5036109;28;20584;-75
2023/03/10 12:36:31;;;;;;;0.68;0.68;;;3.40;85.10;;;;;;5053938;28;20346;-75
2023/03/10 12:38:57;;;;;;;0.80;0.80;;;3.00;87.50;;;;;;5052757;28;20197;-75
2023/03/10 12:41:25;;;;;;;0.80;0.80;;;2.90;85.70;;;;;;5053839;28;20198;-73
2023/03/10 12:44:00;;;;;;;0.50;0.50;;;3.00;87.50;;;;;;5052715;28;20220;-74
2023/03/10 12:47:01;;;;;;;0.70;0.70;;;3.00;90.90;;;;;;5052583;28;20246;-75
2023/03/10 12:49:52;;;;;;;0.70;0.70;;;3.00;90.20;;;;;;4953489;29;20224;-75
2023/03/10 12:52:27;;;;;;;0.80;0.80;;;2.90;90.80;;;;;;5050241;28;20201;-75
2023/03/10 12:55:04;;;;;;;0.63;0.63;;;3.00;87.60;;;;;;5053709;28;20201;-75
2023/03/10 12:57:33;;;;;;;0.57;0.57;;;3.20;89.10;;;;;;5035873;28;20232;-75
2023/03/10 13:00:19;;;;;;;0.52;0.52;;;3.20;83.00;;;;;;5036165;28;20243;-75